Time;durP1;ratioP1;P1;durP2;ratioP2;P2;SDS_P1;SDS_P2;PMS_P1;PMS_P2;Temp;Humidity;BMP_temperature;BMP_pressure;BME280_temperature;BME280_humidity;BME280_pressure;Samples;Min_cycle;Max_cycle;Signal;HPM_P1;HPM_P2
2022/06/27 00:00:46;;;;;;;;;6.00;6.00;;;;;;;;5102287;28;8787;-73
2022/06/27 00:03:12;;;;;;;;;7.67;6.67;;;;;;;;5102674;28;8809;-71
2022/06/27 00:05:37;;;;;;;;;13.67;10.00;;;;;;;;5083028;28;11465;-73
2022/06/27 00:08:02;;;;;;;;;9.67;7.00;;;;;;;;5101511;28;24374;-72
2022/06/27 00:10:28;;;;;;;;;9.33;7.00;;;;;;;;5101561;28;22167;-73
2022/06/27 00:12:53;;;;;;;;;5.67;4.00;;;;;;;;5101766;28;8791;-72
2022/06/27 00:15:18;;;;;;;;;4.33;4.33;;;;;;;;5101588;28;10686;-73
2022/06/27 00:17:44;;;;;;;;;5.67;5.33;;;;;;;;5101005;28;11638;-72
2022/06/27 00:20:09;;;;;;;;;7.00;7.00;;;;;;;;5101266;28;10420;-73
2022/06/27 00:22:35;;;;;;;;;10.67;9.00;;;;;;;;5101801;28;11300;-71
2022/06/27 00:25:00;;;;;;;;;9.00;7.00;;;;;;;;5101452;28;21324;-71
2022/06/27 00:27:25;;;;;;;;;5.00;4.67;;;;;;;;5101364;28;21907;-73
2022/06/27 00:29:50;;;;;;;;;6.67;5.33;;;;;;;;5101493;28;11298;-73
2022/06/27 00:32:16;;;;;;;;;7.67;5.67;;;;;;;;5101557;28;11620;-73
2022/06/27 00:34:42;;;;;;;;;5.75;4.75;;;;;;;;5100531;28;11859;-73
2022/06/27 00:37:07;;;;;;;;;5.67;3.33;;;;;;;;5100786;28;11491;-74
2022/06/27 00:39:32;;;;;;;;;4.67;3.67;;;;;;;;5101047;28;9458;-73
2022/06/27 00:41:58;;;;;;;;;4.67;4.00;;;;;;;;5100955;28;11711;-73
2022/06/27 00:44:33;;;;;;;;;4.00;4.00;;;;;;;;5100620;28;8830;-73
2022/06/27 00:46:58;;;;;;;;;7.50;6.00;;;;;;;;5100816;28;8775;-74
2022/06/27 00:49:24;;;;;;;;;3.67;3.67;;;;;;;;5100273;28;11432;-74
2022/06/27 00:51:49;;;;;;;;;4.00;4.00;;;;;;;;5100406;28;11297;-74
2022/06/27 00:54:14;;;;;;;;;6.00;4.00;;;;;;;;5099846;28;11803;-74
2022/06/27 00:56:40;;;;;;;;;5.00;5.00;;;;;;;;5101024;28;8812;-73
2022/06/27 00:59:05;;;;;;;;;6.67;4.00;;;;;;;;5100788;28;8775;-73
2022/06/27 01:01:31;;;;;;;;;5.00;3.33;;;;;;;;5100527;28;10484;-73
2022/06/27 01:04:00;;;;;;;;;4.00;4.00;;;;;;;;5099135;28;11586;-73
2022/06/27 01:06:26;;;;;;;;;2.50;2.50;;;;;;;;5111019;27;11729;-74
2022/06/27 01:08:51;;;;;;;;;4.00;3.00;;;;;;;;5125940;27;11357;-73
2022/06/27 01:11:16;;;;;;;;;3.00;3.00;;;;;;;;5119779;28;12557;-73
2022/06/27 01:13:42;;;;;;;;;3.00;3.00;;;;;;;;5119036;28;8891;-73
2022/06/27 01:16:07;;;;;;;;;2.00;2.00;;;;;;;;5118906;28;8957;-72
2022/06/27 01:18:32;;;;;;;;;3.00;2.00;;;;;;;;5119452;28;9405;-72
2022/06/27 01:20:59;;;;;;;;;4.33;3.33;;;;;;;;5119309;28;8812;-73
2022/06/27 01:23:24;;;;;;;;;4.00;2.25;;;;;;;;5119547;28;11786;-72
2022/06/27 01:25:50;;;;;;;;;5.33;3.67;;;;;;;;5119248;28;9910;-72
2022/06/27 01:28:15;;;;;;;;;4.67;3.00;;;;;;;;5120431;28;11324;-73
2022/06/27 01:30:40;;;;;;;;;4.67;2.00;;;;;;;;5120903;28;11533;-73
2022/06/27 01:33:06;;;;;;;;;2.67;2.00;;;;;;;;5120114;28;8801;-73
2022/06/27 01:35:31;;;;;;;;;3.67;2.67;;;;;;;;5120032;28;8781;-73
2022/06/27 01:37:57;;;;;;;;;4.00;4.00;;;;;;;;5119945;28;11443;-73
2022/06/27 01:40:22;;;;;;;;;2.67;2.00;;;;;;;;5120351;28;11635;-73
2022/06/27 01:42:47;;;;;;;;;7.67;4.00;;;;;;;;5101498;28;10947;-73
2022/06/27 01:45:13;;;;;;;;;5.00;3.00;;;;;;;;5119991;28;8850;-73
2022/06/27 01:47:38;;;;;;;;;3.00;3.00;;;;;;;;5119774;28;10291;-73
2022/06/27 01:50:04;;;;;;;;;3.00;2.67;;;;;;;;5119693;28;8824;-74
2022/06/27 01:52:30;;;;;;;;;1.00;1.00;;;;;;;;5120311;28;8833;-74
2022/06/27 01:54:55;;;;;;;;;4.00;2.00;;;;;;;;5119947;28;11628;-74
2022/06/27 01:57:22;;;;;;;;;6.33;3.00;;;;;;;;5120221;28;9714;-73
2022/06/27 01:59:49;;;;;;;;;4.75;3.00;;;;;;;;5119456;28;10602;-73
2022/06/27 02:02:14;;;;;;;;;7.75;7.75;;;;;;;;5120191;28;9648;-74
2022/06/27 02:04:40;;;;;;;;;10.67;7.33;;;;;;;;5119650;28;11294;-73
2022/06/27 02:07:06;;;;;;;;;6.25;4.75;;;;;;;;5119370;28;21682;-73
2022/06/27 02:09:31;;;;;;;;;7.33;5.00;;;;;;;;5118801;28;21474;-73
2022/06/27 02:11:56;;;;;;;;;4.33;4.00;;;;;;;;5119118;28;11878;-73
2022/06/27 02:14:23;;;;;;;;;8.00;5.00;;;;;;;;5119100;27;8804;-74
2022/06/27 02:16:48;;;;;;;;;7.00;4.50;;;;;;;;5118995;28;10432;-74
2022/06/27 02:19:15;;;;;;;;;5.00;3.33;;;;;;;;5119139;28;12426;-73
2022/06/27 02:21:41;;;;;;;;;4.75;4.25;;;;;;;;5119648;28;12652;-73
2022/06/27 02:24:07;;;;;;;;;6.00;5.00;;;;;;;;5119412;28;10424;-73
2022/06/27 02:26:33;;;;;;;;;7.50;5.00;;;;;;;;5119115;28;11381;-73
2022/06/27 02:28:59;;;;;;;;;6.33;5.67;;;;;;;;5119065;28;10144;-73
2022/06/27 02:31:25;;;;;;;;;4.00;4.00;;;;;;;;5118920;28;11526;-73
2022/06/27 02:33:51;;;;;;;;;5.00;4.67;;;;;;;;5119466;28;11573;-73
2022/06/27 02:36:18;;;;;;;;;8.33;6.33;;;;;;;;5119171;28;11395;-73
2022/06/27 02:38:44;;;;;;;;;6.00;6.00;;;;;;;;5118880;28;11876;-73
2022/06/27 02:41:12;;;;;;;;;8.00;8.00;;;;;;;;5119423;28;11334;-73
2022/06/27 02:43:38;;;;;;;;;6.00;4.25;;;;;;;;5118934;28;8764;-73
2022/06/27 02:46:04;;;;;;;;;5.67;4.67;;;;;;;;5118781;28;11357;-74
2022/06/27 02:48:30;;;;;;;;;5.00;4.00;;;;;;;;5119312;28;12439;-74
2022/06/27 02:50:58;;;;;;;;;6.25;4.00;;;;;;;;5100751;28;10957;-74
2022/06/27 02:53:26;;;;;;;;;5.00;3.25;;;;;;;;5118443;28;10026;-74
2022/06/27 02:55:53;;;;;;;;;7.50;5.00;;;;;;;;5118475;28;12706;-74
2022/06/27 02:58:19;;;;;;;;;4.75;4.50;;;;;;;;5118792;28;11919;-74
2022/06/27 03:00:48;;;;;;;;;5.25;5.25;;;;;;;;5119272;28;11524;-74
2022/06/27 03:03:15;;;;;;;;;10.25;5.75;;;;;;;;5118375;28;12615;-74
2022/06/27 03:05:56;;;;;;;;;4.00;3.75;;;;;;;;5118491;28;21639;-74
2022/06/27 03:08:22;;;;;;;;;6.50;6.50;;;;;;;;5117963;28;22054;-74
2022/06/27 03:10:47;;;;;;;;;3.00;3.00;;;;;;;;5118667;28;11286;-74
2022/06/27 03:13:13;;;;;;;;;6.00;3.33;;;;;;;;5118320;28;11725;-74
2022/06/27 03:15:38;;;;;;;;;5.67;4.00;;;;;;;;5118108;28;11540;-74
2022/06/27 03:18:03;;;;;;;;;5.67;3.67;;;;;;;;5118031;28;11482;-73
2022/06/27 03:20:29;;;;;;;;;6.00;6.00;;;;;;;;5118913;28;8927;-73
2022/06/27 03:22:54;;;;;;;;;6.33;6.00;;;;;;;;5118985;28;12817;-73
2022/06/27 03:25:19;;;;;;;;;6.00;3.00;;;;;;;;5119131;27;8808;-73
2022/06/27 03:27:45;;;;;;;;;7.00;5.00;;;;;;;;5122615;28;9559;-74
2022/06/27 03:30:10;;;;;;;;;4.67;3.33;;;;;;;;5122592;28;9450;-74
2022/06/27 03:32:35;;;;;;;;;10.00;4.00;;;;;;;;5122781;28;11805;-73
2022/06/27 03:35:01;;;;;;;;;5.00;4.00;;;;;;;;5121721;28;21388;-74
2022/06/27 03:37:26;;;;;;;;;6.33;3.67;;;;;;;;5122308;28;16202;-74
2022/06/27 03:39:52;;;;;;;;;8.33;4.67;;;;;;;;5122143;28;11466;-74
2022/06/27 03:42:17;;;;;;;;;5.33;5.33;;;;;;;;5122321;28;9506;-74
2022/06/27 03:44:42;;;;;;;;;5.33;3.00;;;;;;;;5122127;28;11773;-75
2022/06/27 03:47:07;;;;;;;;;9.33;3.00;;;;;;;;5122157;28;8785;-75
2022/06/27 03:52:16;;;;;;;;;4.00;4.00;;;;;;;;5121881;28;11255;-74
2022/06/27 03:54:42;;;;;;;;;5.00;5.00;;;;;;;;5121846;28;8806;-75
2022/06/27 03:57:07;;;;;;;;;5.00;3.33;;;;;;;;5121578;28;9377;-74
2022/06/27 03:59:32;;;;;;;;;5.00;5.00;;;;;;;;5121162;28;8844;-73
2022/06/27 04:01:58;;;;;;;;;4.00;4.00;;;;;;;;5121883;28;8777;-73
2022/06/27 04:04:23;;;;;;;;;12.67;11.00;;;;;;;;5121364;28;8799;-77
2022/06/27 04:06:48;;;;;;;;;8.67;8.00;;;;;;;;5121854;28;22169;-79
2022/06/27 04:09:13;;;;;;;;;6.33;5.33;;;;;;;;5101378;28;24001;-77
2022/06/27 04:11:39;;;;;;;;;7.00;4.00;;;;;;;;5104392;28;11509;-84
2022/06/27 04:14:04;;;;;;;;;5.00;5.00;;;;;;;;5077074;28;11460;-84
2022/06/27 04:16:29;;;;;;;;;4.67;4.00;;;;;;;;5100642;28;8924;-81
2022/06/27 04:18:54;;;;;;;;;5.33;4.00;;;;;;;;5101606;28;10741;-84
2022/06/27 04:21:20;;;;;;;;;4.00;4.00;;;;;;;;5100180;28;10769;-87
2022/06/27 04:23:45;;;;;;;;;7.00;4.00;;;;;;;;5099897;28;10786;-86
2022/06/27 04:26:10;;;;;;;;;13.00;6.00;;;;;;;;5101311;28;8817;-84
2022/06/27 04:28:36;;;;;;;;;6.00;6.00;;;;;;;;5100526;28;22892;-84
2022/06/27 04:31:01;;;;;;;;;9.67;6.00;;;;;;;;5100954;28;16558;-87
2022/06/27 04:33:26;;;;;;;;;8.00;6.00;;;;;;;;5100302;28;8797;-87
2022/06/27 04:35:52;;;;;;;;;5.33;4.33;;;;;;;;5100649;28;9000;-87
2022/06/27 04:38:18;;;;;;;;;5.00;4.33;;;;;;;;5098944;28;13308;-82
2022/06/27 04:40:44;;;;;;;;;6.33;5.00;;;;;;;;5101597;28;8867;-81
2022/06/27 04:43:10;;;;;;;;;10.33;6.67;;;;;;;;5101501;28;11306;-81
2022/06/27 04:45:36;;;;;;;;;6.33;4.00;;;;;;;;5100377;28;21680;-81
2022/06/27 04:48:01;;;;;;;;;13.25;12.25;;;;;;;;5100364;28;21308;-81
2022/06/27 04:50:27;;;;;;;;;21.25;18.50;;;;;;;;5098796;28;24061;-82
2022/06/27 04:52:52;;;;;;;;;21.25;18.75;;;;;;;;5100533;28;13666;-82
2022/06/27 04:55:18;;;;;;;;;12.00;9.33;;;;;;;;5098641;28;8905;-81
2022/06/27 04:57:44;;;;;;;;;9.67;8.33;;;;;;;;5100980;28;22729;-83
2022/06/27 05:00:11;;;;;;;;;42.25;35.50;;;;;;;;5100508;28;21755;-82
2022/06/27 05:02:36;;;;;;;;;32.00;27.75;;;;;;;;5100156;28;24159;-83
2022/06/27 05:05:03;;;;;;;;;14.00;11.67;;;;;;;;5082508;28;14423;-83
2022/06/27 05:07:29;;;;;;;;;7.00;5.00;;;;;;;;5082628;28;13276;-85
2022/06/27 05:09:56;;;;;;;;;16.00;10.00;;;;;;;;5078098;28;25682;-84
2022/06/27 05:12:22;;;;;;;;;7.00;5.33;;;;;;;;5079619;28;23926;-83
2022/06/27 05:14:47;;;;;;;;;7.00;5.00;;;;;;;;5079673;28;22172;-84
2022/06/27 05:17:12;;;;;;;;;6.00;5.00;;;;;;;;5078679;28;10125;-85
2022/06/27 05:19:37;;;;;;;;;7.00;3.33;;;;;;;;5078252;28;10242;-84
2022/06/27 05:22:03;;;;;;;;;9.33;4.00;;;;;;;;5080128;28;11313;-84
2022/06/27 05:24:28;;;;;;;;;4.00;3.00;;;;;;;;5078983;28;13318;-83
2022/06/27 05:26:54;;;;;;;;;6.00;5.00;;;;;;;;5082991;28;10494;-83
2022/06/27 05:29:19;;;;;;;;;4.67;4.33;;;;;;;;5079227;28;10469;-84
2022/06/27 05:31:45;;;;;;;;;6.00;4.00;;;;;;;;5100503;28;11287;-84
2022/06/27 05:34:10;;;;;;;;;5.00;4.00;;;;;;;;5100520;28;11312;-84
2022/06/27 05:36:35;;;;;;;;;2.67;2.00;;;;;;;;5100415;28;8935;-84
2022/06/27 05:39:01;;;;;;;;;3.00;3.00;;;;;;;;5100077;28;11472;-82
2022/06/27 05:41:27;;;;;;;;;7.00;4.00;;;;;;;;5100029;28;10465;-85
2022/06/27 05:43:53;;;;;;;;;7.67;5.00;;;;;;;;5100014;28;11387;-83
2022/06/27 05:46:19;;;;;;;;;6.33;4.67;;;;;;;;5098981;28;10024;-84
2022/06/27 05:48:45;;;;;;;;;11.67;7.00;;;;;;;;5090677;28;11651;-84
2022/06/27 05:51:10;;;;;;;;;5.67;5.00;;;;;;;;5079070;28;22551;-83
2022/06/27 05:53:38;;;;;;;;;14.25;12.50;;;;;;;;5079006;28;21516;-84
2022/06/27 05:56:04;;;;;;;;;18.00;18.00;;;;;;;;5079477;28;22776;-84
2022/06/27 05:58:29;;;;;;;;;12.67;8.00;;;;;;;;5080517;28;11453;-85
2022/06/27 06:00:54;;;;;;;;;7.00;7.00;;;;;;;;5080182;28;21382;-84
2022/06/27 06:03:20;;;;;;;;;6.67;5.00;;;;;;;;5078980;28;21870;-83
2022/06/27 06:05:45;;;;;;;;;6.00;3.00;;;;;;;;5079096;28;10264;-82
2022/06/27 06:08:11;;;;;;;;;5.67;4.67;;;;;;;;5079696;28;9463;-82
2022/06/27 06:10:37;;;;;;;;;7.00;5.33;;;;;;;;5079004;28;11555;-83
2022/06/27 06:13:03;;;;;;;;;5.00;5.00;;;;;;;;5079373;28;11649;-84
2022/06/27 06:15:30;;;;;;;;;4.00;4.00;;;;;;;;5079387;28;11301;-84
2022/06/27 06:17:56;;;;;;;;;5.00;4.00;;;;;;;;5079761;28;8861;-83
2022/06/27 06:20:25;;;;;;;;;3.33;3.00;;;;;;;;5079512;28;8796;-84
2022/06/27 06:22:50;;;;;;;;;4.67;4.67;;;;;;;;5078455;28;11869;-81
2022/06/27 06:25:16;;;;;;;;;5.67;4.00;;;;;;;;5096763;28;11424;-79
2022/06/27 06:27:44;;;;;;;;;4.00;3.33;;;;;;;;5089993;28;11301;-83
2022/06/27 06:30:10;;;;;;;;;6.25;4.75;;;;;;;;5079792;28;12587;-82
2022/06/27 06:32:35;;;;;;;;;5.67;5.33;;;;;;;;5079095;28;10553;-81
2022/06/27 06:35:02;;;;;;;;;5.00;4.67;;;;;;;;5077888;28;10504;-90
2022/06/27 06:37:29;;;;;;;;;8.00;6.33;;;;;;;;5077534;28;10548;-89
2022/06/27 06:39:54;;;;;;;;;6.00;5.00;;;;;;;;5079863;28;11896;-85
2022/06/27 06:42:20;;;;;;;;;4.33;3.67;;;;;;;;5079311;28;11320;-78
2022/06/27 06:44:46;;;;;;;;;6.33;5.00;;;;;;;;5079126;28;11808;-71
2022/06/27 06:47:12;;;;;;;;;8.00;7.00;;;;;;;;5082681;28;11561;-73
2022/06/27 06:49:39;;;;;;;;;8.00;6.25;;;;;;;;5083110;28;10519;-72
2022/06/27 06:52:05;;;;;;;;;14.00;14.00;;;;;;;;5084703;28;10216;-70
2022/06/27 06:54:31;;;;;;;;;19.00;17.00;;;;;;;;5090000;28;22286;-72
2022/06/27 06:56:57;;;;;;;;;8.67;4.67;;;;;;;;5087212;28;9253;-71
2022/06/27 06:59:22;;;;;;;;;9.00;7.00;;;;;;;;5085750;28;22127;-72
2022/06/27 07:01:47;;;;;;;;;7.33;5.00;;;;;;;;5085558;28;11484;-71
2022/06/27 07:04:14;;;;;;;;;6.33;6.33;;;;;;;;5086895;28;10754;-71
2022/06/27 07:06:40;;;;;;;;;6.50;5.00;;;;;;;;5085681;28;11376;-71
2022/06/27 07:09:05;;;;;;;;;6.00;5.00;;;;;;;;5085221;28;10506;-72
2022/06/27 07:11:35;;;;;;;;;5.33;4.33;;;;;;;;5087045;28;8816;-74
2022/06/27 07:14:00;;;;;;;;;6.75;5.50;;;;;;;;5087339;28;12560;-72
2022/06/27 07:16:26;;;;;;;;;5.00;2.00;;;;;;;;5080272;28;11348;-72
2022/06/27 07:18:55;;;;;;;;;4.00;4.00;;;;;;;;5085970;28;11466;-72
2022/06/27 07:21:21;;;;;;;;;8.00;5.00;;;;;;;;5083991;28;11489;-72
2022/06/27 07:23:48;;;;;;;;;6.00;4.00;;;;;;;;5086503;28;8893;-73
2022/06/27 07:26:14;;;;;;;;;4.00;4.00;;;;;;;;5086075;28;8958;-74
2022/06/27 07:28:40;;;;;;;;;5.75;4.00;;;;;;;;5084822;28;8795;-74
2022/06/27 07:31:08;;;;;;;;;6.67;4.67;;;;;;;;5083901;28;8805;-73
2022/06/27 07:33:36;;;;;;;;;6.25;3.75;;;;;;;;5086397;28;12968;-73
2022/06/27 07:36:03;;;;;;;;;4.50;4.00;;;;;;;;5083035;28;13093;-72
2022/06/27 07:38:29;;;;;;;;;4.50;4.25;;;;;;;;5086538;28;11400;-73
2022/06/27 07:40:54;;;;;;;;;4.67;4.67;;;;;;;;5084186;28;8850;-74
2022/06/27 07:43:19;;;;;;;;;6.00;5.00;;;;;;;;5081305;28;9014;-72
2022/06/27 07:45:44;;;;;;;;;4.00;4.00;;;;;;;;5086975;28;11292;-72
2022/06/27 07:48:10;;;;;;;;;6.33;4.00;;;;;;;;5085556;28;8983;-74
2022/06/27 07:50:40;;;;;;;;;3.67;3.67;;;;;;;;5085688;28;9018;-76
2022/06/27 07:53:12;;;;;;;;;4.75;4.00;;;;;;;;5085283;28;11438;-74
2022/06/27 07:55:39;;;;;;;;;6.00;2.50;;;;;;;;5084933;28;12757;-76
2022/06/27 07:58:05;;;;;;;;;5.00;4.00;;;;;;;;5087044;28;11373;-75
2022/06/27 08:00:30;;;;;;;;;3.00;3.00;;;;;;;;5085409;28;11449;-75
2022/06/27 08:02:55;;;;;;;;;5.67;4.00;;;;;;;;5085875;28;8864;-76
2022/06/27 08:05:20;;;;;;;;;5.00;4.00;;;;;;;;5086792;28;10405;-74
2022/06/27 08:07:46;;;;;;;;;5.00;3.00;;;;;;;;5082913;28;9325;-74
2022/06/27 08:10:12;;;;;;;;;3.00;3.00;;;;;;;;5081544;28;8798;-74
2022/06/27 08:12:37;;;;;;;;;6.67;3.67;;;;;;;;5087538;28;11514;-74
2022/06/27 08:15:03;;;;;;;;;4.00;3.33;;;;;;;;5087191;28;12496;-74
2022/06/27 08:17:29;;;;;;;;;3.67;2.67;;;;;;;;5088760;28;11355;-74
2022/06/27 08:19:54;;;;;;;;;5.67;5.67;;;;;;;;5085924;28;13300;-76
2022/06/27 08:22:24;;;;;;;;;8.00;5.00;;;;;;;;5084815;28;9517;-76
2022/06/27 08:24:49;;;;;;;;;5.00;5.00;;;;;;;;5084739;28;11615;-75
2022/06/27 08:27:14;;;;;;;;;7.00;4.50;;;;;;;;5087624;28;8789;-75
2022/06/27 08:29:41;;;;;;;;;11.50;7.00;;;;;;;;5090090;28;12408;-74
2022/06/27 08:32:06;;;;;;;;;5.40;4.80;;;;;;;;5087393;28;22894;-74
2022/06/27 08:34:33;;;;;;;;;10.00;7.00;;;;;;;;5088630;28;21665;-74
2022/06/27 08:36:59;;;;;;;;;7.20;5.40;;;;;;;;5089198;28;21587;-77
2022/06/27 08:39:25;;;;;;;;;9.80;6.60;;;;;;;;5087519;28;21724;-74
2022/06/27 08:41:51;;;;;;;;;6.75;4.25;;;;;;;;5088175;28;11636;-76
2022/06/27 08:44:16;;;;;;;;;8.50;8.50;;;;;;;;5088528;28;11455;-75
2022/06/27 08:46:45;;;;;;;;;11.50;7.00;;;;;;;;5089797;28;11315;-75
2022/06/27 08:49:12;;;;;;;;;7.80;6.00;;;;;;;;5085655;28;22046;-74
2022/06/27 08:51:37;;;;;;;;;8.60;8.60;;;;;;;;5084615;28;22235;-74
2022/06/27 08:54:04;;;;;;;;;9.00;6.50;;;;;;;;5086700;28;11942;-74
2022/06/27 08:56:30;;;;;;;;;10.20;8.00;;;;;;;;5089915;28;11977;-74
2022/06/27 08:58:58;;;;;;;;;6.80;6.80;;;;;;;;5086323;28;21838;-74
2022/06/27 09:01:24;;;;;;;;;9.40;8.40;;;;;;;;5087308;28;24083;-74
2022/06/27 09:03:59;;;;;;;;;9.20;7.00;;;;;;;;5087816;28;11666;-73
2022/06/27 09:06:25;;;;;;;;;10.40;8.20;;;;;;;;5085168;28;11266;-74
2022/06/27 09:09:08;;;;;;;;;13.20;8.40;;;;;;;;5084371;28;21808;-73
2022/06/27 09:11:35;;;;;;;;;10.80;7.00;;;;;;;;5078725;28;10663;-74
2022/06/27 09:14:01;;;;;;;;;8.20;7.20;;;;;;;;5078467;28;10708;-75
2022/06/27 09:16:27;;;;;;;;;10.40;8.40;;;;;;;;5079327;28;21682;-75
2022/06/27 09:18:53;;;;;;;;;10.00;8.25;;;;;;;;5088061;28;21711;-75
2022/06/27 09:21:18;;;;;;;;;9.00;7.75;;;;;;;;5085695;28;9508;-75
2022/06/27 09:23:47;;;;;;;;;10.75;7.75;;;;;;;;5085144;28;23520;-74
2022/06/27 09:26:18;;;;;;;;;8.40;6.80;;;;;;;;5084319;28;18802;-74
2022/06/27 09:29:03;;;;;;;;;9.60;9.00;;;;;;;;5085385;28;21413;-73
2022/06/27 09:31:30;;;;;;;;;9.80;8.60;;;;;;;;5089254;28;11442;-73
2022/06/27 09:34:14;;;;;;;;;6.60;6.60;;;;;;;;5086821;28;10651;-74
2022/06/27 09:36:45;;;;;;;;;5.80;3.00;;;;;;;;5086984;28;10713;-74
2022/06/27 09:39:23;;;;;;;;;7.80;6.80;;;;;;;;5095533;28;11425;-74
2022/06/27 09:41:59;;;;;;;;;5.80;3.40;;;;;;;;5100149;28;12569;-76
2022/06/27 09:44:35;;;;;;;;;7.60;4.80;;;;;;;;5097702;28;11655;-74
2022/06/27 09:47:01;;;;;;;;;9.60;7.20;;;;;;;;5080172;28;11814;-75
2022/06/27 09:49:29;;;;;;;;;8.00;7.00;;;;;;;;5082074;28;13613;-74
2022/06/27 09:51:54;;;;;;;;;11.25;7.75;;;;;;;;5088385;28;12814;-73
2022/06/27 09:54:22;;;;;;;;;6.50;4.00;;;;;;;;5087965;28;21777;-73
2022/06/27 09:56:48;;;;;;;;;9.25;7.25;;;;;;;;5085675;28;22042;-73
2022/06/27 09:59:14;;;;;;;;;7.00;7.00;;;;;;;;5088020;28;11747;-73
2022/06/27 10:01:41;;;;;;;;;7.00;5.40;;;;;;;;5088298;28;12091;-73
2022/06/27 10:04:07;;;;;;;;;10.50;7.00;;;;;;;;5085765;28;9447;-73
2022/06/27 10:06:33;;;;;;;;;8.00;5.20;;;;;;;;5087328;28;22233;-73
2022/06/27 10:08:59;;;;;;;;;9.33;6.67;;;;;;;;5087898;28;21350;-74
2022/06/27 10:11:24;;;;;;;;;10.25;8.25;;;;;;;;5084533;28;12017;-73
2022/06/27 10:14:10;;;;;;;;;6.75;5.25;;;;;;;;5076749;28;23412;-74
2022/06/27 10:16:49;;;;;;;;;9.00;6.75;;;;;;;;5077224;28;21453;-75
2022/06/27 10:19:14;;;;;;;;;7.60;4.00;;;;;;;;5084369;28;10449;-75
2022/06/27 10:21:41;;;;;;;;;6.50;6.25;;;;;;;;5098811;28;11819;-74
2022/06/27 10:24:31;;;;;;;;;6.75;5.25;;;;;;;;5098318;28;12713;-74
2022/06/27 10:26:57;;;;;;;;;9.20;5.80;;;;;;;;5088602;28;10093;-75
2022/06/27 10:29:33;;;;;;;;;8.50;7.50;;;;;;;;5098672;28;10394;-75
2022/06/27 10:32:02;;;;;;;;;7.20;7.00;;;;;;;;5098878;28;11725;-75
2022/06/27 10:34:40;;;;;;;;;3.60;3.00;;;;;;;;5098315;28;12232;-75
2022/06/27 10:37:37;;;;;;;;;10.25;6.50;;;;;;;;5098141;28;10358;-74
2022/06/27 10:40:21;;;;;;;;;6.40;6.40;;;;;;;;5015738;28;21489;-75
2022/06/27 10:42:47;;;;;;;;;6.00;6.00;;;;;;;;5015226;28;21627;-74
2022/06/27 10:45:32;;;;;;;;;7.25;5.25;;;;;;;;5014997;28;8900;-74
2022/06/27 10:48:01;;;;;;;;;8.75;7.50;;;;;;;;4999244;28;13536;-74
2022/06/27 10:50:28;;;;;;;;;8.75;4.50;;;;;;;;5061399;28;11603;-76
2022/06/27 10:53:16;;;;;;;;;9.75;8.25;;;;;;;;5078479;28;9520;-76
2022/06/27 10:55:42;;;;;;;;;5.25;4.50;;;;;;;;5072033;28;11799;-74
2022/06/27 10:58:47;;;;;;;;;7.00;5.00;;;;;;;;5077912;28;12783;-74
2022/06/27 11:01:14;;;;;;;;;9.00;6.00;;;;;;;;5035792;28;12773;-77
2022/06/27 11:03:39;;;;;;;;;8.75;5.00;;;;;;;;5034909;28;8823;-75
2022/06/27 11:06:05;;;;;;;;;9.00;7.33;;;;;;;;5035083;28;10560;-73
2022/06/27 11:08:34;;;;;;;;;8.00;7.67;;;;;;;;5035389;28;11374;-75
2022/06/27 11:11:00;;;;;;;;;8.75;6.75;;;;;;;;5035731;28;11393;-73
2022/06/27 11:13:40;;;;;;;;;10.00;6.00;;;;;;;;5030350;28;10785;-76
2022/06/27 11:16:07;;;;;;;;;7.00;5.00;;;;;;;;5065120;28;21727;-74
2022/06/27 11:20:04;;;;;;;;;6.00;4.25;;;;;;;;5083164;28;21690;-73
2022/06/27 11:21:50;;;;;;;;;10.50;5.50;;;;;;;;5045984;28;11665;-74
2022/06/27 11:24:15;;;;;;;;;4.67;4.00;;;;;;;;5036218;28;23703;-75
2022/06/27 11:26:45;;;;;;;;;7.33;3.67;;;;;;;;5055087;28;21337;-79
2022/06/27 11:32:00;;;;;;;;;8.50;5.75;;;;;;;;5078891;28;11304;-74
2022/06/27 11:34:27;;;;;;;;;12.00;7.25;;;;;;;;5088408;28;11912;-73
2022/06/27 11:36:53;;;;;;;;;2.75;0.00;;;;;;;;5097622;28;21730;-74
2022/06/27 11:39:25;;;;;;;;;11.33;7.00;;;;;;;;5095257;28;21704;-74
2022/06/27 11:41:55;;;;;;;;;6.00;5.75;;;;;;;;5098128;28;23031;-77
2022/06/27 11:44:20;;;;;;;;;7.00;7.00;;;;;;;;5084876;28;21444;-74
2022/06/27 11:46:46;;;;;;;;;10.67;7.00;;;;;;;;5085928;28;12409;-73
2022/06/27 11:49:12;;;;;;;;;7.33;7.00;;;;;;;;5084712;28;16308;-74
2022/06/27 11:51:40;;;;;;;;;12.75;7.75;;;;;;;;5088536;28;16423;-75
2022/06/27 11:54:09;;;;;;;;;6.25;6.25;;;;;;;;5089649;28;22872;-74
2022/06/27 11:56:36;;;;;;;;;9.00;7.50;;;;;;;;5088283;28;22761;-74
2022/06/27 11:59:03;;;;;;;;;7.50;5.75;;;;;;;;5087551;28;11412;-78
2022/06/27 12:01:29;;;;;;;;;6.75;6.50;;;;;;;;5090711;28;15957;-78
2022/06/27 12:04:14;;;;;;;;;12.00;7.67;;;;;;;;5101222;28;11294;-74
2022/06/27 12:06:40;;;;;;;;;9.25;5.75;;;;;;;;5086230;28;21667;-74
2022/06/27 12:09:05;;;;;;;;;8.00;7.00;;;;;;;;5090952;28;21503;-75
2022/06/27 12:11:32;;;;;;;;;12.00;5.00;;;;;;;;5090581;28;11270;-73
2022/06/27 12:13:59;;;;;;;;;12.25;7.00;;;;;;;;5086812;28;24916;-74
2022/06/27 12:16:24;;;;;;;;;7.75;6.25;;;;;;;;5088029;28;10411;-75
2022/06/27 12:18:52;;;;;;;;;10.00;8.00;;;;;;;;5086954;28;21515;-75
2022/06/27 12:21:18;;;;;;;;;5.75;5.75;;;;;;;;5086769;28;21591;-75
2022/06/27 12:23:44;;;;;;;;;8.50;7.50;;;;;;;;5090157;28;21438;-75
2022/06/27 12:26:10;;;;;;;;;8.33;8.00;;;;;;;;5083781;28;11289;-76
2022/06/27 12:28:36;;;;;;;;;9.75;7.75;;;;;;;;5081597;28;10778;-79
2022/06/27 12:31:01;;;;;;;;;8.00;6.00;;;;;;;;5087789;28;11525;-80
2022/06/27 12:33:27;;;;;;;;;8.00;7.00;;;;;;;;5097279;28;11720;-80
2022/06/27 12:35:52;;;;;;;;;6.75;5.75;;;;;;;;5086711;28;10727;-79
2022/06/27 12:38:18;;;;;;;;;8.33;7.00;;;;;;;;5084790;28;11364;-73
2022/06/27 12:40:43;;;;;;;;;9.00;7.00;;;;;;;;5085326;28;11448;-74
2022/06/27 12:43:08;;;;;;;;;14.33;8.67;;;;;;;;5082880;28;8907;-76
2022/06/27 12:45:35;;;;;;;;;9.00;4.33;;;;;;;;5078315;28;23596;-78
2022/06/27 12:48:04;;;;;;;;;10.75;6.75;;;;;;;;5080238;28;21713;-76
2022/06/27 12:50:29;;;;;;;;;7.00;5.25;;;;;;;;5096353;28;21537;-75
2022/06/27 12:52:54;;;;;;;;;12.33;8.67;;;;;;;;5100319;28;21331;-74
2022/06/27 12:55:20;;;;;;;;;10.33;8.33;;;;;;;;5098768;28;22971;-75
2022/06/27 12:57:45;;;;;;;;;6.33;6.33;;;;;;;;5100306;28;10480;-78
2022/06/27 13:00:10;;;;;;;;;11.67;8.33;;;;;;;;5098994;28;23858;-76
2022/06/27 13:02:36;;;;;;;;;9.00;9.00;;;;;;;;5098548;28;23689;-74
2022/06/27 13:05:01;;;;;;;;;9.67;8.00;;;;;;;;5099585;28;21499;-79
2022/06/27 13:07:27;;;;;;;;;11.67;7.00;;;;;;;;5091406;28;9453;-77
2022/06/27 13:09:52;;;;;;;;;9.33;7.00;;;;;;;;5091998;28;21865;-76
2022/06/27 13:12:18;;;;;;;;;8.67;4.67;;;;;;;;5081713;28;16197;-73
2022/06/27 13:14:43;;;;;;;;;13.25;9.00;;;;;;;;5087603;28;11644;-77
2022/06/27 13:17:09;;;;;;;;;8.00;4.00;;;;;;;;5084153;28;23761;-76
2022/06/27 13:19:34;;;;;;;;;6.33;6.00;;;;;;;;5087007;28;21348;-78
2022/06/27 13:21:59;;;;;;;;;9.33;7.33;;;;;;;;5089022;28;10254;-75
2022/06/27 13:24:25;;;;;;;;;10.33;8.33;;;;;;;;5089237;28;11330;-73
2022/06/27 13:26:52;;;;;;;;;7.00;7.00;;;;;;;;5087226;28;22011;-76
2022/06/27 13:29:17;;;;;;;;;7.00;6.50;;;;;;;;5088145;28;21414;-76
2022/06/27 13:31:43;;;;;;;;;11.67;7.33;;;;;;;;5087493;28;9186;-77
2022/06/27 13:34:08;;;;;;;;;10.00;6.67;;;;;;;;5086595;28;21310;-76
2022/06/27 13:36:33;;;;;;;;;8.00;5.00;;;;;;;;5088791;28;10323;-76
2022/06/27 13:38:58;;;;;;;;;10.00;7.00;;;;;;;;5087116;28;22689;-74
2022/06/27 13:41:24;;;;;;;;;6.67;6.00;;;;;;;;5086876;28;21686;-73
2022/06/27 13:43:49;;;;;;;;;7.33;6.33;;;;;;;;5089395;28;21501;-74
2022/06/27 13:46:14;;;;;;;;;11.33;7.33;;;;;;;;5090068;28;11533;-78
2022/06/27 13:48:40;;;;;;;;;8.33;7.00;;;;;;;;5086934;28;24015;-75
2022/06/27 13:51:05;;;;;;;;;11.33;7.67;;;;;;;;5085404;28;23650;-74
2022/06/27 13:53:32;;;;;;;;;9.00;9.00;;;;;;;;5080805;28;21425;-74
2022/06/27 13:55:57;;;;;;;;;5.25;4.00;;;;;;;;5087435;28;21918;-77
2022/06/27 13:58:22;;;;;;;;;12.00;9.00;;;;;;;;5087327;28;10337;-74
2022/06/27 14:00:48;;;;;;;;;10.00;6.00;;;;;;;;5088856;28;22716;-74
2022/06/27 14:03:13;;;;;;;;;9.00;8.00;;;;;;;;5088988;28;8905;-74
2022/06/27 14:05:38;;;;;;;;;5.00;5.00;;;;;;;;5088263;28;21345;-74
2022/06/27 14:08:04;;;;;;;;;13.00;8.33;;;;;;;;5088067;28;8833;-74
2022/06/27 14:10:31;;;;;;;;;9.67;7.33;;;;;;;;5087987;28;21311;-86
2022/06/27 14:12:57;;;;;;;;;9.00;7.50;;;;;;;;5085390;28;21863;-87
2022/06/27 14:15:23;;;;;;;;;7.75;6.75;;;;;;;;5088905;28;8803;-78
2022/06/27 14:17:49;;;;;;;;;9.33;6.00;;;;;;;;5084694;28;11745;-77
2022/06/27 14:20:15;;;;;;;;;7.75;7.25;;;;;;;;5086530;28;11378;-81
2022/06/27 14:22:41;;;;;;;;;7.00;7.00;;;;;;;;5085115;28;13524;-77
2022/06/27 14:25:07;;;;;;;;;12.00;9.00;;;;;;;;5090149;28;9693;-86
2022/06/27 14:27:32;;;;;;;;;8.67;4.00;;;;;;;;5085664;28;21383;-80
2022/06/27 14:29:58;;;;;;;;;8.33;5.67;;;;;;;;5087489;28;22736;-82
2022/06/27 14:32:24;;;;;;;;;8.75;5.75;;;;;;;;5085771;28;10575;-73
2022/06/27 14:34:50;;;;;;;;;10.67;7.00;;;;;;;;5086612;28;9588;-79
2022/06/27 14:37:15;;;;;;;;;6.75;5.25;;;;;;;;5084578;28;23851;-80
2022/06/27 14:39:40;;;;;;;;;5.67;5.67;;;;;;;;5088885;28;21593;-77
2022/06/27 14:42:06;;;;;;;;;10.67;7.00;;;;;;;;5089013;28;12100;-83
2022/06/27 14:44:34;;;;;;;;;10.67;5.33;;;;;;;;5086790;28;21454;-78
2022/06/27 14:47:03;;;;;;;;;7.00;5.25;;;;;;;;5086503;28;8884;-78